Time;durP1;ratioP1;P1;durP2;ratioP2;P2;SDS_P1;SDS_P2;PMS_P1;PMS_P2;Temp;Humidity;BMP_temperature;BMP_pressure;BME280_temperature;BME280_humidity;BME280_pressure;Samples;Min_cycle;Max_cycle;Signal;HPM_P1;HPM_P2
2023/08/16 00:02:10;;;;;;;4.40;1.80;;;;;;;21.00;100.00;100256.41;108845;1254;59861;-52
2023/08/16 00:04:37;;;;;;;3.70;2.00;;;;;;;20.97;100.00;100257.60;108809;1254;74354;-48
2023/08/16 00:07:04;;;;;;;11.00;3.30;;;;;;;20.92;100.00;100257.10;108778;1254;66622;-49
2023/08/16 00:09:32;;;;;;;9.50;3.70;;;;;;;20.88;100.00;100258.02;108769;1254;71399;-52
2023/08/16 00:11:59;;;;;;;11.60;3.20;;;;;;;20.84;100.00;100257.82;108838;1256;60863;-50
2023/08/16 00:14:26;;;;;;;10.40;4.00;;;;;;;20.81;100.00;100257.70;104783;1254;61934;-47
2023/08/16 00:16:54;;;;;;;5.00;3.50;;;;;;;20.81;100.00;100258.83;104504;1253;71630;-47
2023/08/16 00:19:21;;;;;;;11.90;3.90;;;;;;;20.78;100.00;100258.27;104431;1257;65811;-51
2023/08/16 00:21:48;;;;;;;14.50;4.80;;;;;;;20.74;100.00;100260.67;104491;1256;73588;-51
2023/08/16 00:24:15;;;;;;;6.70;3.30;;;;;;;20.70;100.00;100259.15;104493;1254;61754;-50
2023/08/16 00:26:43;;;;;;;7.20;2.90;;;;;;;20.67;100.00;100256.10;104492;1254;60554;-52
2023/08/16 00:29:10;;;;;;;10.40;2.60;;;;;;;20.66;100.00;100257.28;104413;1254;75371;-49
2023/08/16 00:31:38;;;;;;;13.70;3.60;;;;;;;20.66;100.00;100260.06;104484;1254;67760;-48
2023/08/16 00:34:05;;;;;;;18.50;3.50;;;;;;;20.66;100.00;100264.09;104553;1259;73122;-53
2023/08/16 00:36:33;;;;;;;7.20;2.00;;;;;;;20.65;100.00;100264.52;107370;1254;61693;-47
2023/08/16 00:39:01;;;;;;;3.40;1.40;;;;;;;20.63;100.00;100268.84;104318;1255;60661;-50
2023/08/16 00:41:29;;;;;;;3.60;1.30;;;;;;;20.60;100.00;100272.21;104537;1259;72684;-50
2023/08/16 00:43:56;;;;;;;2.20;1.30;;;;;;;20.56;100.00;100270.20;104394;1254;67238;-49
2023/08/16 00:46:24;;;;;;;3.80;1.50;;;;;;;20.54;100.00;100270.90;104610;1254;72670;-51
2023/08/16 00:48:51;;;;;;;4.40;1.80;;;;;;;20.52;100.00;100270.30;105608;1259;60558;-52
2023/08/16 00:51:19;;;;;;;2.00;1.30;;;;;;;20.51;100.00;100271.11;104267;1261;59902;-51
2023/08/16 00:53:46;;;;;;;2.40;1.90;;;;;;;20.49;100.00;100275.26;104247;1254;75430;-52
2023/08/16 00:56:14;;;;;;;2.50;1.60;;;;;;;20.49;100.00;100274.98;104382;1254;66735;-48
2023/08/16 00:58:42;;;;;;;3.00;1.50;;;;;;;20.48;100.00;100278.84;104470;1254;74174;-51
2023/08/16 01:01:09;;;;;;;4.00;1.40;;;;;;;20.48;100.00;100276.88;105470;1259;60583;-49
2023/08/16 01:03:37;;;;;;;4.20;1.50;;;;;;;20.45;100.00;100276.02;104546;1254;60487;-50
2023/08/16 01:06:05;;;;;;;3.80;1.80;;;;;;;20.41;100.00;100277.02;105354;1253;72564;-48
2023/08/16 01:08:32;;;;;;;2.10;1.80;;;;;;;20.40;100.00;100279.67;104487;1255;66024;-49
2023/08/16 01:11:28;;;;;;;1.60;1.50;;;;;;;20.39;100.00;100278.27;104605;1257;71345;-48
2023/08/16 01:14:02;;;;;;;2.00;1.30;;;;;;;20.38;100.00;100278.68;104538;1256;62121;-47
2023/08/16 01:16:29;;;;;;;2.70;2.20;;;;;;;20.38;100.00;100278.73;104587;1252;61746;-47
2023/08/16 01:18:57;;;;;;;4.30;2.80;;;;;;;20.37;100.00;100278.79;104915;1254;73857;-48
2023/08/16 01:21:24;;;;;;;3.40;1.60;;;;;;;20.37;100.00;100279.33;105718;1254;65664;-52
2023/08/16 01:24:06;;;;;;;2.00;1.60;;;;;;;20.37;100.00;100278.08;104420;1254;72694;-48
2023/08/16 01:26:36;;;;;;;2.60;1.90;;;;;;;20.36;100.00;100277.58;104506;1256;60562;-47
2023/08/16 01:29:06;;;;;;;3.50;2.10;;;;;;;20.35;100.00;100274.92;107425;1253;58844;-48
2023/08/16 01:31:33;;;;;;;4.30;2.10;;;;;;;20.35;100.00;100275.50;104423;1259;74840;-49
2023/08/16 01:34:00;;;;;;;2.90;2.50;;;;;;;20.29;100.00;100274.67;105155;1252;66821;-51
2023/08/16 01:36:28;;;;;;;3.10;2.10;;;;;;;20.22;100.00;100280.89;104460;1257;71369;-51
2023/08/16 01:38:56;;;;;;;2.80;2.40;;;;;;;20.16;100.00;100275.89;104492;1254;60401;-50
2023/08/16 01:41:45;;;;;;;4.10;2.70;;;;;;;20.13;100.00;100274.15;104900;1254;60542;-49
2023/08/16 01:44:13;;;;;;;4.30;2.40;;;;;;;20.10;100.00;100274.60;104761;1259;75932;-48
2023/08/16 01:46:40;;;;;;;2.80;2.00;;;;;;;20.07;100.00;100273.24;105059;1253;67981;-49
2023/08/16 01:49:07;;;;;;;2.40;2.00;;;;;;;20.01;100.00;100273.08;104819;1254;71435;-53
2023/08/16 01:51:35;;;;;;;2.90;2.30;;;;;;;19.97;100.00;100270.20;104927;1259;60439;-53
2023/08/16 01:54:02;;;;;;;3.00;1.90;;;;;;;19.94;100.00;100271.33;104906;1260;60565;-52
2023/08/16 01:56:31;;;;;;;3.70;2.20;;;;;;;19.92;100.00;100267.59;104826;1259;74299;-53
2023/08/16 01:58:59;;;;;;;1.90;1.80;;;;;;;19.92;100.00;100264.88;104804;1255;65669;-51
2023/08/16 02:01:26;;;;;;;1.80;1.70;;;;;;;19.93;100.00;100267.94;104708;1254;71363;-50
2023/08/16 02:03:54;;;;;;;3.20;1.60;;;;;;;19.93;100.00;100265.76;104830;1257;60587;-53
2023/08/16 02:06:21;;;;;;;4.20;1.40;;;;;;;19.93;100.00;100264.29;104837;1254;60559;-53
2023/08/16 02:08:49;;;;;;;3.20;1.60;;;;;;;19.93;100.00;100265.91;104745;1260;73865;-52
2023/08/16 02:11:19;;;;;;;2.60;1.30;;;;;;;19.93;100.00;100261.35;105642;1259;66804;-51
2023/08/16 02:13:47;;;;;;;2.00;1.90;;;;;;;19.93;100.00;100264.96;105320;1256;72708;-51
2023/08/16 02:16:14;;;;;;;2.00;1.90;;;;;;;19.93;100.00;100269.01;104829;1256;60825;-51
2023/08/16 02:18:43;;;;;;;2.90;1.50;;;;;;;19.92;100.00;100269.42;108816;1253;60887;-54
2023/08/16 02:21:11;;;;;;;5.10;1.30;;;;;;;19.93;100.00;100271.93;108834;1253;73784;-54
2023/08/16 02:23:39;;;;;;;2.20;1.30;;;;;;;19.90;100.00;100273.85;108688;1254;66793;-54
2023/08/16 02:26:06;;;;;;;1.90;1.20;;;;;;;19.87;100.00;100276.45;108782;1254;74077;-53
2023/08/16 02:28:33;;;;;;;1.50;1.40;;;;;;;19.85;100.00;100275.27;108801;1257;60381;-54
2023/08/16 02:31:05;;;;;;;5.50;1.40;;;;;;;19.85;100.00;100276.72;108814;1254;59436;-54
2023/08/16 02:33:33;;;;;;;1.50;1.40;;;;;;;19.86;100.00;100282.52;108834;1255;73072;-54
2023/08/16 02:36:00;;;;;;;3.20;1.40;;;;;;;19.83;100.00;100281.10;108990;1254;66914;-52
2023/08/16 02:38:28;;;;;;;2.10;1.50;;;;;;;19.80;100.00;100285.00;108964;1255;71397;-52
2023/08/16 02:40:55;;;;;;;2.70;2.20;;;;;;;19.79;100.00;100286.73;108807;1254;63827;-54
2023/08/16 02:43:22;;;;;;;3.00;1.30;;;;;;;19.78;100.00;100284.98;108791;1256;60471;-54
2023/08/16 02:45:52;;;;;;;1.50;1.30;;;;;;;19.78;100.00;100288.23;108752;1253;73927;-54
2023/08/16 02:48:19;;;;;;;3.40;1.60;;;;;;;19.78;100.00;100287.88;108756;1254;67741;-54
2023/08/16 02:50:48;;;;;;;1.60;1.10;;;;;;;19.78;100.00;100292.06;108793;1257;71417;-54
2023/08/16 02:53:16;;;;;;;2.20;1.50;;;;;;;19.78;100.00;100289.52;108744;1254;62882;-54
2023/08/16 02:55:44;;;;;;;1.50;1.40;;;;;;;19.77;100.00;100295.96;108625;1255;60703;-53
2023/08/16 02:58:12;;;;;;;6.40;1.60;;;;;;;19.75;100.00;100297.54;108774;1259;73874;-53
2023/08/16 03:00:39;;;;;;;1.60;1.50;;;;;;;19.72;100.00;100296.40;108786;1256;66800;-54
2023/08/16 03:03:07;;;;;;;3.80;2.50;;;;;;;19.67;100.00;100295.45;108776;1255;71405;-53
2023/08/16 03:05:35;;;;;;;2.30;1.80;;;;;;;19.65;100.00;100299.41;107180;1259;60041;-54
2023/08/16 03:08:03;;;;;;;1.50;1.40;;;;;;;19.64;100.00;100302.09;108044;1255;60062;-53
2023/08/16 03:10:30;;;;;;;4.10;1.80;;;;;;;19.63;100.00;100303.40;108776;1256;75076;-52
2023/08/16 03:12:58;;;;;;;3.30;1.40;;;;;;;19.63;100.00;100304.34;104836;1256;66845;-53
2023/08/16 03:15:25;;;;;;;2.50;1.40;;;;;;;19.63;100.00;100303.05;104388;1256;73102;-53
2023/08/16 03:17:53;;;;;;;2.30;1.80;;;;;;;19.63;100.00;100303.57;104524;1259;62194;-52
2023/08/16 03:20:21;;;;;;;2.50;1.60;;;;;;;19.63;100.00;100303.97;104435;1258;60341;-55
2023/08/16 03:22:49;;;;;;;2.40;1.50;;;;;;;19.63;100.00;100304.89;104148;1256;72608;-52
2023/08/16 03:25:17;;;;;;;1.90;1.60;;;;;;;19.64;100.00;100308.23;104218;1261;65527;-53
2023/08/16 03:27:44;;;;;;;1.90;1.80;;;;;;;19.66;100.00;100307.91;104330;1256;73034;-51
2023/08/16 03:30:11;;;;;;;3.00;1.40;;;;;;;19.68;100.00;100308.34;104495;1257;61675;-51
2023/08/16 03:32:40;;;;;;;2.40;1.50;;;;;;;19.70;100.00;100307.44;105012;1257;60574;-51
2023/08/16 03:35:08;;;;;;;1.70;1.50;;;;;;;19.72;100.00;100312.35;104365;1257;75718;-52
2023/08/16 03:37:36;;;;;;;4.10;2.10;;;;;;;19.75;100.00;100312.52;104397;1257;65623;-53
2023/08/16 03:40:06;;;;;;;4.20;1.70;;;;;;;19.78;100.00;100316.65;104678;1259;72696;-54
2023/08/16 03:42:33;;;;;;;2.10;1.70;;;;;;;19.82;100.00;100323.65;104681;1257;61676;-52
2023/08/16 03:45:01;;;;;;;1.70;1.30;;;;;;;19.84;100.00;100321.39;104983;1256;60461;-52
2023/08/16 03:47:29;;;;;;;2.70;1.60;;;;;;;19.87;100.00;100320.27;104667;1259;73819;-53
2023/08/16 03:49:59;;;;;;;1.90;1.40;;;;;;;19.91;100.00;100318.16;105291;1254;65676;-52
2023/08/16 03:52:27;;;;;;;2.70;1.70;;;;;;;19.94;100.00;100319.16;105295;1258;71407;-53
2023/08/16 03:54:54;;;;;;;2.70;1.60;;;;;;;19.98;100.00;100318.85;105023;1254;61618;-53
2023/08/16 03:57:22;;;;;;;1.70;1.30;;;;;;;20.02;100.00;100315.98;105007;1254;60433;-50
2023/08/16 03:59:53;;;;;;;4.30;1.80;;;;;;;20.07;100.00;100321.64;105099;1256;73790;-52
2023/08/16 04:02:21;;;;;;;2.90;1.30;;;;;;;20.11;100.00;100322.77;104920;1254;67907;-53
2023/08/16 04:04:51;;;;;;;1.60;1.50;;;;;;;20.15;100.00;100323.40;104856;1257;71386;-54
2023/08/16 04:07:19;;;;;;;4.20;1.40;;;;;;;20.20;100.00;100326.44;104907;1255;61751;-53
2023/08/16 04:09:46;;;;;;;4.10;1.70;;;;;;;20.26;100.00;100330.89;104815;1254;60562;-54
2023/08/16 04:12:14;;;;;;;3.10;2.00;;;;;;;20.33;100.00;100335.82;104670;1254;72400;-54
2023/08/16 04:14:41;;;;;;;3.60;1.20;;;;;;;20.43;100.00;100340.35;104857;1259;65515;-53
2023/08/16 04:17:09;;;;;;;3.90;1.80;;;;;;;20.52;100.00;100342.13;104979;1256;72767;-52
2023/08/16 04:19:36;;;;;;;3.50;1.50;;;;;;;20.63;100.00;100344.70;105714;1254;61676;-53
2023/08/16 04:22:04;;;;;;;3.10;1.30;;;;;;;20.74;100.00;100346.38;104981;1255;60527;-54
2023/08/16 04:24:32;;;;;;;5.50;1.60;;;;;;;20.86;100.00;100349.03;105896;1258;74323;-52
2023/08/16 04:26:59;;;;;;;2.90;1.80;;;;;;;20.99;100.00;100350.51;104889;1260;65838;-52
2023/08/16 04:29:27;;;;;;;4.50;3.00;;;;;;;21.13;100.00;100349.37;104751;1259;72452;-52
2023/08/16 04:31:56;;;;;;;2.30;1.60;;;;;;;21.32;100.00;100350.38;104850;1254;60782;-53
2023/08/16 04:34:23;;;;;;;3.80;1.80;;;;;;;21.58;100.00;100348.13;104931;1256;60585;-51
2023/08/16 04:36:51;;;;;;;4.30;1.70;;;;;;;21.94;100.00;100355.53;104835;1254;72607;-51
2023/08/16 04:39:18;;;;;;;2.90;1.80;;;;;;;22.25;100.00;100358.80;104637;1253;66889;-51
2023/08/16 04:41:47;;;;;;;5.00;3.90;;;;;;;22.49;100.00;100363.65;105327;1258;71519;-52
2023/08/16 04:44:16;;;;;;;2.90;2.50;;;;;;;22.74;100.00;100373.49;104953;1254;60597;-54
2023/08/16 04:46:44;;;;;;;6.30;4.40;;;;;;;22.97;100.00;100377.87;104905;1256;60463;-55
2023/08/16 04:49:11;;;;;;;7.90;4.40;;;;;;;23.11;100.00;100378.65;104774;1258;74616;-53
2023/08/16 04:51:38;;;;;;;5.60;4.80;;;;;;;23.21;100.00;100385.89;104782;1254;65503;-53
2023/08/16 04:54:07;;;;;;;7.10;4.70;;;;;;;23.30;100.00;100389.67;104828;1254;72651;-53
2023/08/16 04:56:35;;;;;;;6.20;5.70;;;;;;;23.36;100.00;100391.63;104899;1257;61704;-53
2023/08/16 04:59:02;;;;;;;5.20;4.70;;;;;;;23.43;100.00;100394.36;104843;1254;61400;-54
2023/08/16 05:01:29;;;;;;;7.80;6.40;;;;;;;23.48;100.00;100394.42;104857;1258;74847;-51
2023/08/16 05:03:59;;;;;;;7.80;6.00;;;;;;;23.54;100.00;100395.23;105343;1254;65770;-54
2023/08/16 05:06:27;;;;;;;5.90;5.40;;;;;;;23.59;100.00;100401.89;104863;1254;73101;-53
2023/08/16 05:08:54;;;;;;;5.50;4.70;;;;;;;23.63;100.00;100404.80;104876;1255;60552;-53
2023/08/16 05:11:22;;;;;;;4.10;3.70;;;;;;;23.67;100.00;100409.52;104829;1254;60548;-52
2023/08/16 05:13:50;;;;;;;7.70;4.50;;;;;;;23.71;100.00;100415.96;105540;1254;73837;-54
2023/08/16 05:16:17;;;;;;;6.50;3.80;;;;;;;23.74;100.00;100414.94;104994;1258;67796;-55
2023/08/16 05:18:48;;;;;;;4.30;3.20;;;;;;;23.77;100.00;100417.83;104939;1259;72961;-53
2023/08/16 05:21:16;;;;;;;4.20;3.80;;;;;;;23.79;100.00;100419.08;104855;1257;60395;-52
2023/08/16 05:23:43;;;;;;;3.90;3.50;;;;;;;23.81;100.00;100419.41;104908;1259;60431;-53
2023/08/16 05:26:10;;;;;;;6.00;4.70;;;;;;;23.83;100.00;100425.11;104964;1254;73869;-52
2023/08/16 05:28:38;;;;;;;4.70;3.90;;;;;;;23.84;100.00;100428.84;104877;1252;67240;-52
2023/08/16 05:31:07;;;;;;;4.90;4.40;;;;;;;23.86;100.00;100434.55;104849;1259;73216;-53
2023/08/16 05:33:36;;;;;;;3.50;3.20;;;;;;;23.88;100.00;100437.70;109095;1253;60399;-53
2023/08/16 05:36:03;;;;;;;5.20;3.50;;;;;;;23.89;100.00;100439.55;109094;1254;58731;-54
2023/08/16 05:38:31;;;;;;;7.00;3.10;;;;;;;23.92;100.00;100436.77;109060;1254;72580;-53
2023/08/16 05:40:58;;;;;;;5.00;2.90;;;;;;;23.94;100.00;100438.91;109053;1254;65554;-54
2023/08/16 05:43:26;;;;;;;4.80;3.20;;;;;;;23.97;100.00;100437.56;109000;1254;72630;-53
2023/08/16 05:45:53;;;;;;;3.20;2.90;;;;;;;24.00;100.00;100440.89;109113;1254;61829;-54
2023/08/16 05:48:20;;;;;;;3.70;2.50;;;;;;;24.06;100.00;100441.67;109037;1252;58749;-53
2023/08/16 05:50:48;;;;;;;5.00;3.30;;;;;;;24.12;100.00;100447.85;109066;1254;73857;-55
2023/08/16 05:53:15;;;;;;;5.40;2.90;;;;;;;24.18;100.00;100452.98;109034;1254;67258;-54
2023/08/16 05:55:42;;;;;;;5.30;2.80;;;;;;;24.24;100.00;100457.06;109056;1254;74920;-55
2023/08/16 05:58:10;;;;;;;4.50;3.70;;;;;;;24.30;100.00;100453.73;109099;1254;58779;-55
2023/08/16 06:00:37;;;;;;;5.70;4.40;;;;;;;24.35;100.00;100457.03;105405;1254;60596;-54
2023/08/16 06:03:05;;;;;;;5.40;3.20;;;;;;;24.40;100.00;100458.40;105020;1259;73774;-54
2023/08/16 06:05:33;;;;;;;2.80;2.60;;;;;;;24.45;100.00;100455.70;104992;1258;65483;-52
2023/08/16 06:08:00;;;;;;;2.70;2.20;;;;;;;24.50;100.00;100455.77;104730;1254;72875;-52
2023/08/16 06:10:28;;;;;;;3.40;2.70;;;;;;;24.55;100.00;100465.23;104921;1254;61683;-54
2023/08/16 06:12:55;;;;;;;2.90;2.40;;;;;;;24.60;100.00;100471.70;104867;1254;60694;-53
2023/08/16 06:15:23;;;;;;;6.70;3.80;;;;;;;24.64;100.00;100475.80;104849;1256;73807;-52
2023/08/16 06:17:50;;;;;;;4.90;4.10;;;;;;;24.67;100.00;100474.05;104923;1255;67400;-54
2023/08/16 06:20:18;;;;;;;5.80;5.30;;;;;;;24.70;100.00;100475.92;104791;1257;72706;-55
2023/08/16 06:22:45;;;;;;;6.10;5.60;;;;;;;24.74;100.00;100478.06;104820;1254;60652;-55
2023/08/16 06:25:12;;;;;;;5.30;4.80;;;;;;;24.79;100.00;100480.88;104969;1257;60437;-52
2023/08/16 06:27:40;;;;;;;5.60;4.30;;;;;;;24.84;100.00;100486.08;104823;1257;74400;-55
2023/08/16 06:30:08;;;;;;;6.00;4.30;;;;;;;24.90;100.00;100486.50;104736;1254;67773;-53
2023/08/16 06:32:35;;;;;;;4.90;3.10;;;;;;;24.94;100.00;100484.33;105230;1257;71467;-54
2023/08/16 06:35:05;;;;;;;7.30;4.00;;;;;;;24.98;100.00;100486.12;104925;1260;61759;-53
2023/08/16 06:37:32;;;;;;;6.10;3.40;;;;;;;25.02;100.00;100490.35;104955;1257;60706;-53
2023/08/16 06:40:04;;;;;;;9.30;3.80;;;;;;;25.04;100.00;100492.16;104887;1254;72647;-54
2023/08/16 06:42:32;;;;;;;8.30;3.40;;;;;;;25.07;100.00;100491.79;104749;1260;65560;-52
2023/08/16 06:44:59;;;;;;;2.90;2.50;;;;;;;25.14;100.00;100496.29;105108;1254;72641;-53
2023/08/16 06:47:27;;;;;;;3.90;3.00;;;;;;;25.23;100.00;100496.84;104678;1257;60562;-53
2023/08/16 06:49:54;;;;;;;4.40;2.30;;;;;;;25.33;100.00;100501.04;105795;1254;60673;-53
2023/08/16 06:52:22;;;;;;;4.30;2.00;;;;;;;25.44;100.00;100501.81;104960;1254;72536;-54
2023/08/16 06:54:49;;;;;;;4.40;1.90;;;;;;;25.52;100.00;100503.14;104853;1257;65043;-52
2023/08/16 06:57:16;;;;;;;2.70;1.90;;;;;;;25.60;100.00;100502.39;105029;1254;74902;-55
2023/08/16 06:59:44;;;;;;;3.90;1.60;;;;;;;25.64;100.00;100504.95;104926;1255;60552;-54
2023/08/16 07:02:11;;;;;;;3.90;1.50;;;;;;;25.67;100.00;100505.78;104918;1258;60836;-54
2023/08/16 07:06:46;;;;;;;5.70;1.70;;;;;;;25.74;100.00;100570.11;101694;1294;602408;-53
2023/08/16 07:09:12;;;;;;;4.30;1.30;;;;;;;25.78;100.00;100577.62;104134;1266;59363;-54
2023/08/16 07:11:39;;;;;;;2.90;1.30;;;;;;;25.83;100.00;100570.55;104643;1269;59325;-53
2023/08/16 07:14:06;;;;;;;2.90;1.40;;;;;;;25.87;100.00;100568.44;104218;1267;59212;-55
2023/08/16 07:16:33;;;;;;;1.40;1.30;;;;;;;25.92;100.00;100568.68;104072;1268;59240;-52
2023/08/16 07:19:00;;;;;;;2.60;1.30;;;;;;;25.95;100.00;100569.50;104194;1266;224173;-52
2023/08/16 07:21:26;;;;;;;2.30;1.10;;;;;;;25.98;100.00;100569.48;104324;1263;59420;-53
2023/08/16 07:23:53;;;;;;;2.80;1.70;;;;;;;26.03;100.00;100568.30;104268;1264;59689;-54
2023/08/16 07:26:20;;;;;;;2.10;1.60;;;;;;;26.07;100.00;100570.29;104349;1263;72851;-54
2023/08/16 07:28:46;;;;;;;4.20;1.80;;;;;;;26.13;100.00;100566.90;104300;1267;67003;-53
2023/08/16 07:31:13;;;;;;;3.10;1.60;;;;;;;26.19;100.00;100568.50;104322;1263;72912;-53
2023/08/16 07:33:40;;;;;;;3.00;2.10;;;;;;;26.27;100.00;100566.83;104199;1265;60803;-53
2023/08/16 07:36:06;;;;;;;4.20;2.40;;;;;;;26.34;100.00;100573.66;104012;1263;59996;-53
2023/08/16 07:38:33;;;;;;;6.80;5.00;;;;;;;26.42;100.00;100575.06;104208;1264;73133;-53
2023/08/16 07:41:00;;;;;;;2.70;2.50;;;;;;;26.50;100.00;100579.55;104151;1266;68083;-53
2023/08/16 07:43:28;;;;;;;6.70;2.50;;;;;;;26.59;100.00;100577.02;104321;1262;73072;-54
2023/08/16 07:45:54;;;;;;;1.60;1.50;;;;;;;26.65;100.00;100578.95;104567;1267;60434;-54
2023/08/16 07:48:21;;;;;;;5.10;2.20;;;;;;;26.70;100.00;100581.41;104020;1266;59827;-55
2023/08/16 07:50:51;;;;;;;2.80;2.60;;;;;;;26.78;100.00;100583.73;104457;1264;73455;-55
2023/08/16 07:53:18;;;;;;;8.60;4.60;;;;;;;26.86;100.00;100586.16;105235;1265;67071;-55
2023/08/16 07:55:45;;;;;;;3.30;2.50;;;;;;;26.95;100.00;100585.99;104749;1263;73445;-53
2023/08/16 07:58:13;;;;;;;3.70;2.20;;;;;;;27.04;100.00;100587.28;103988;1271;60793;-55
2023/08/16 08:00:40;;;;;;;3.50;1.90;;;;;;;27.13;100.00;100589.86;104490;1264;60913;-53
2023/08/16 08:03:08;;;;;;;3.90;2.50;;;;;;;27.20;100.00;100591.00;104204;1262;73647;-53
2023/08/16 08:05:35;;;;;;;2.20;1.90;;;;;;;27.26;100.00;100587.56;104800;1260;67365;-52
2023/08/16 08:08:04;;;;;;;2.90;1.90;;;;;;;27.32;100.00;100590.89;104695;1260;73688;-53
2023/08/16 08:10:32;;;;;;;3.50;1.40;;;;;;;27.39;100.00;100591.84;104893;1260;59643;-54
2023/08/16 08:12:58;;;;;;;2.00;1.60;;;;;;;27.41;100.00;100589.89;104346;1260;59849;-53
2023/08/16 08:15:25;;;;;;;3.40;1.40;;;;;;;27.47;100.00;100594.67;104198;1260;59772;-55
2023/08/16 08:17:51;;;;;;;1.60;1.10;;;;;;;27.53;100.00;100596.80;105532;1260;59754;-55
2023/08/16 08:20:18;;;;;;;1.20;1.10;;;;;;;27.59;100.00;100600.02;104688;1261;74666;-56
2023/08/16 08:22:44;;;;;;;2.30;1.20;;;;;;;27.64;100.00;100603.46;104843;1261;59808;-54
2023/08/16 08:25:10;;;;;;;2.10;1.30;;;;;;;27.69;100.00;100602.70;104324;1260;59533;-55
2023/08/16 08:27:37;;;;;;;6.00;1.60;;;;;;;27.75;100.00;100608.88;104273;1260;59638;-55
2023/08/16 08:30:04;;;;;;;2.50;1.20;;;;;;;27.81;100.00;100611.30;104420;1261;59698;-55
2023/08/16 08:32:31;;;;;;;2.60;1.30;;;;;;;27.88;100.00;100613.21;108456;1259;72931;-55
2023/08/16 08:34:57;;;;;;;1.20;1.10;;;;;;;27.94;100.00;100615.86;108888;1254;57754;-54
2023/08/16 08:37:24;;;;;;;2.30;1.20;;;;;;;28.00;100.00;100618.35;108951;1255;59988;-54
2023/08/16 08:39:50;;;;;;;1.70;1.20;;;;;;;28.06;100.00;100621.16;108866;1257;57966;-55
2023/08/16 08:42:17;;;;;;;2.30;1.10;;;;;;;28.12;100.00;100623.83;108757;1254;66950;-55
2023/08/16 08:44:44;;;;;;;3.00;1.10;;;;;;;28.19;100.00;100624.55;108770;1255;71224;-54
2023/08/16 08:47:10;;;;;;;3.50;0.90;;;;;;;28.26;100.00;100627.16;108881;1256;58794;-54
2023/08/16 08:49:44;;;;;;;4.40;1.30;;;;;;;28.32;100.00;100629.67;108720;1256;58406;-55
2023/08/16 08:52:10;;;;;;;1.30;1.20;;;;;;;28.39;100.00;100634.63;108714;1256;71796;-55
2023/08/16 08:54:37;;;;;;;1.60;1.20;;;;;;;28.45;100.00;100639.21;108639;1256;66941;-55
2023/08/16 08:57:04;;;;;;;3.20;2.00;;;;;;;28.48;100.00;100638.60;108906;1254;57678;-54
2023/08/16 08:59:33;;;;;;;2.50;1.00;;;;;;;28.50;100.00;100643.31;108773;1256;58881;-55
2023/08/16 09:02:00;;;;;;;6.80;1.30;;;;;;;28.55;100.00;100647.59;108853;1255;60043;-55
2023/08/16 09:04:28;;;;;;;3.90;1.70;;;;;;;28.60;100.00;100644.45;108849;1256;71776;-55
2023/08/16 09:06:55;;;;;;;5.60;1.30;;;;;;;28.65;100.00;100645.10;105857;1256;67115;-54
2023/08/16 09:09:25;;;;;;;4.20;1.30;;;;;;;28.69;100.00;100648.25;104536;1254;74367;-56
2023/08/16 09:11:52;;;;;;;2.00;1.80;;;;;;;28.74;100.00;100651.30;104674;1256;59315;-52
2023/08/16 09:14:19;;;;;;;4.10;1.40;;;;;;;28.75;100.00;100654.44;107777;1255;60856;-54
2023/08/16 09:16:45;;;;;;;7.10;1.30;;;;;;;28.79;100.00;100651.98;105543;1259;59520;-53
2023/08/16 09:19:16;;;;;;;3.00;1.30;;;;;;;28.83;100.00;100657.85;104667;1256;59670;-54
2023/08/16 09:21:42;;;;;;;3.90;1.10;;;;;;;28.83;100.00;100661.08;104777;1256;73291;-54
2023/08/16 09:24:09;;;;;;;1.70;1.00;;;;;;;28.85;100.00;100662.00;104996;1259;60106;-56
2023/08/16 09:26:37;;;;;;;2.20;1.00;;;;;;;28.88;100.00;100664.09;104850;1256;59585;-55
2023/08/16 09:29:03;;;;;;;5.50;1.20;;;;;;;28.92;100.00;100666.90;105362;1256;73533;-55
2023/08/16 09:31:37;;;;;;;6.50;2.00;;;;;;;28.96;100.00;100663.21;104864;1259;67731;-53
2023/08/16 09:34:05;;;;;;;1.80;0.90;;;;;;;29.01;100.00;100665.23;104774;1255;74810;-55
2023/08/16 09:36:33;;;;;;;2.60;1.30;;;;;;;29.07;100.00;100670.13;105886;1259;60996;-54
2023/08/16 09:39:02;;;;;;;2.50;1.40;;;;;;;29.14;100.00;100667.64;105157;1256;60213;-54
2023/08/16 09:41:30;;;;;;;3.20;1.30;;;;;;;29.20;100.00;100668.05;104900;1255;73643;-54
2023/08/16 09:44:03;;;;;;;4.70;1.20;;;;;;;29.24;100.00;100667.79;105023;1259;67761;-54
2023/08/16 09:46:30;;;;;;;3.30;1.20;;;;;;;29.30;100.00;100670.66;104987;1254;73341;-54
2023/08/16 09:49:07;;;;;;;3.50;1.20;;;;;;;29.36;100.00;100671.59;104763;1256;60307;-54
2023/08/16 09:51:39;;;;;;;3.20;1.90;;;;;;;29.42;100.00;100673.59;104732;1256;60148;-55
2023/08/16 09:54:12;;;;;;;1.50;1.40;;;;;;;29.46;100.00;100668.71;104601;1256;72819;-54
2023/08/16 09:56:40;;;;;;;6.00;1.30;;;;;;;29.49;100.00;100671.48;105057;1255;68056;-53
2023/08/16 09:59:27;;;;;;;5.60;1.70;;;;;;;29.53;100.00;100672.88;104499;1256;73216;-54
2023/08/16 10:01:58;;;;;;;1.40;1.30;;;;;;;29.54;100.00;100672.77;104847;1262;60282;-56
2023/08/16 10:04:28;;;;;;;3.90;1.30;;;;;;;29.54;100.00;100671.59;104736;1255;59861;-54
2023/08/16 10:06:57;;;;;;;3.60;1.50;;;;;;;29.57;100.00;100674.27;108732;1256;74685;-55
2023/08/16 10:09:28;;;;;;;4.70;1.30;;;;;;;29.61;100.00;100673.47;105283;1256;65984;-56
2023/08/16 10:11:55;;;;;;;1.20;1.10;;;;;;;29.66;100.00;100675.38;104904;1259;71674;-56
2023/08/16 10:14:21;;;;;;;3.50;1.30;;;;;;;29.70;100.00;100676.83;104732;1262;60118;-54
2023/08/16 10:16:48;;;;;;;3.30;1.60;;;;;;;29.70;100.00;100674.42;105504;1256;60223;-53
2023/08/16 10:19:15;;;;;;;3.10;1.30;;;;;;;29.68;100.00;100674.52;105239;1256;73463;-55
2023/08/16 10:21:43;;;;;;;3.30;1.30;;;;;;;29.67;100.00;100674.41;104639;1264;67329;-54
2023/08/16 10:24:13;;;;;;;5.50;1.30;;;;;;;29.68;100.00;100671.67;104865;1256;73053;-54
2023/08/16 10:26:40;;;;;;;2.10;1.20;;;;;;;29.71;100.00;100667.84;104853;1262;59667;-54
2023/08/16 10:29:08;;;;;;;1.80;1.40;;;;;;;29.72;100.00;100665.69;104821;1260;59637;-54
2023/08/16 10:31:39;;;;;;;4.60;1.40;;;;;;;29.74;100.00;100667.71;105212;1256;72836;-55
2023/08/16 10:34:07;;;;;;;1.30;1.20;;;;;;;29.76;100.00;100668.16;105533;1257;66147;-55
2023/08/16 10:36:33;;;;;;;2.50;1.30;;;;;;;29.77;100.00;100662.11;104796;1256;73060;-54
2023/08/16 10:39:00;;;;;;;3.60;1.30;;;;;;;29.78;100.00;100659.98;104982;1257;59795;-56
2023/08/16 10:41:26;;;;;;;2.10;1.50;;;;;;;29.78;100.00;100659.77;104644;1257;60915;-54
2023/08/16 10:43:53;;;;;;;5.90;1.40;;;;;;;29.82;100.00;100660.13;104665;1257;73462;-54
2023/08/16 10:46:30;;;;;;;2.30;1.40;;;;;;;29.86;100.00;100653.29;104836;1259;59852;-55
2023/08/16 10:49:06;;;;;;;1.80;1.40;;;;;;;29.91;100.00;100653.45;105623;1259;72976;-56
2023/08/16 10:51:52;;;;;;;1.50;1.40;;;;;;;29.97;100.00;100655.55;104727;1259;60431;-54
2023/08/16 10:54:30;;;;;;;2.80;1.30;;;;;;;29.99;100.00;100660.71;104794;1257;60972;-54
2023/08/16 10:57:01;;;;;;;1.70;1.40;;;;;;;29.95;100.00;100655.82;104612;1261;72900;-53
2023/08/16 10:59:38;;;;;;;1.90;1.20;;;;;;;29.87;100.00;100653.13;105268;1259;66790;-54
2023/08/16 11:02:14;;;;;;;4.20;1.30;;;;;;;29.77;100.00;100648.28;105831;1256;74189;-55
2023/08/16 11:04:42;;;;;;;1.60;1.10;;;;;;;29.65;100.00;100640.25;104536;1259;60242;-54
2023/08/16 11:07:09;;;;;;;3.50;1.20;;;;;;;29.58;100.00;100630.73;104847;1255;59746;-54
2023/08/16 11:09:39;;;;;;;1.60;1.20;;;;;;;29.54;100.00;100627.84;104963;1256;73572;-55
2023/08/16 11:12:06;;;;;;;2.00;1.40;;;;;;;29.55;100.00;100614.63;106535;1259;67486;-54
2023/08/16 11:14:34;;;;;;;1.20;1.10;;;;;;;29.58;100.00;100617.20;105332;1257;73060;-54
2023/08/16 11:17:02;;;;;;;1.40;0.90;;;;;;;29.64;100.00;100615.52;108928;1255;60169;-54